sensor_id;sensor_type;location;lat;lon;timestamp;P1;durP1;ratioP1;P2;durP2;ratioP2
50231;SDS011;36118;56.468;84.952;2022-12-07T00:00:00;20.58;;;9.43;;
50231;SDS011;36118;56.468;84.952;2022-12-07T00:05:05;18.95;;;9.10;;
50231;SDS011;36118;56.468;84.952;2022-12-07T00:10:08;22.30;;;8.02;;
50231;SDS011;36118;56.468;84.952;2022-12-07T00:15:11;21.00;;;7.53;;
50231;SDS011;36118;56.468;84.952;2022-12-07T00:20:14;13.23;;;6.07;;
50231;SDS011;36118;56.468;84.952;2022-12-07T00:25:17;18.90;;;7.82;;
50231;SDS011;36118;56.468;84.952;2022-12-07T00:30:20;16.38;;;4.90;;
50231;SDS011;36118;56.468;84.952;2022-12-07T00:35:22;22.20;;;10.52;;
50231;SDS011;36118;56.468;84.952;2022-12-07T00:40:25;12.38;;;4.55;;
50231;SDS011;36118;56.468;84.952;2022-12-07T00:45:28;23.45;;;7.88;;
50231;SDS011;36118;56.468;84.952;2022-12-07T00:50:31;23.02;;;11.93;;
50231;SDS011;36118;56.468;84.952;2022-12-07T00:55:34;19.52;;;8.75;;
50231;SDS011;36118;56.468;84.952;2022-12-07T01:00:38;19.38;;;8.40;;
50231;SDS011;36118;56.468;84.952;2022-12-07T01:05:51;21.95;;;10.48;;
50231;SDS011;36118;56.468;84.952;2022-12-07T01:11:03;6.85;;;2.58;;
50231;SDS011;36118;56.468;84.952;2022-12-07T01:16:07;20.83;;;9.30;;
50231;SDS011;36118;56.468;84.952;2022-12-07T01:21:11;12.90;;;5.18;;
50231;SDS011;36118;56.468;84.952;2022-12-07T01:26:16;18.02;;;5.63;;
50231;SDS011;36118;56.468;84.952;2022-12-07T01:31:24;21.30;;;8.00;;
50231;SDS011;36118;56.468;84.952;2022-12-07T01:36:29;15.07;;;6.80;;
50231;SDS011;36118;56.468;84.952;2022-12-07T01:41:34;12.48;;;4.85;;
50231;SDS011;36118;56.468;84.952;2022-12-07T01:46:38;17.98;;;5.60;;
50231;SDS011;36118;56.468;84.952;2022-12-07T01:51:42;16.27;;;4.75;;
50231;SDS011;36118;56.468;84.952;2022-12-07T01:56:48;21.88;;;8.13;;
50231;SDS011;36118;56.468;84.952;2022-12-07T02:01:54;24.92;;;11.98;;
50231;SDS011;36118;56.468;84.952;2022-12-07T02:06:57;12.45;;;5.45;;
50231;SDS011;36118;56.468;84.952;2022-12-07T02:12:00;19.33;;;8.88;;
50231;SDS011;36118;56.468;84.952;2022-12-07T02:17:07;18.38;;;5.07;;
50231;SDS011;36118;56.468;84.952;2022-12-07T02:32:49;22.05;;;7.45;;
50231;SDS011;36118;56.468;84.952;2022-12-07T02:38:20;19.88;;;8.48;;
50231;SDS011;36118;56.468;84.952;2022-12-07T02:43:33;21.08;;;6.45;;
50231;SDS011;36118;56.468;84.952;2022-12-07T02:48:38;27.10;;;10.13;;
50231;SDS011;36118;56.468;84.952;2022-12-07T02:53:42;22.25;;;4.75;;
50231;SDS011;36118;56.468;84.952;2022-12-07T02:59:02;22.48;;;11.35;;
50231;SDS011;36118;56.468;84.952;2022-12-07T03:09:36;22.95;;;7.50;;
50231;SDS011;36118;56.468;84.952;2022-12-07T03:14:45;18.55;;;5.75;;
50231;SDS011;36118;56.468;84.952;2022-12-07T03:19:55;21.08;;;7.10;;
50231;SDS011;36118;56.468;84.952;2022-12-07T03:25:04;18.45;;;5.72;;
50231;SDS011;36118;56.468;84.952;2022-12-07T03:30:12;16.60;;;7.45;;
50231;SDS011;36118;56.468;84.952;2022-12-07T03:35:31;18.55;;;5.65;;
50231;SDS011;36118;56.468;84.952;2022-12-07T03:40:39;22.63;;;7.45;;
50231;SDS011;36118;56.468;84.952;2022-12-07T03:45:51;16.20;;;5.65;;
50231;SDS011;36118;56.468;84.952;2022-12-07T03:51:15;26.50;;;9.63;;
50231;SDS011;36118;56.468;84.952;2022-12-07T03:56:25;7.25;;;3.15;;
50231;SDS011;36118;56.468;84.952;2022-12-07T04:01:28;11.43;;;4.28;;
50231;SDS011;36118;56.468;84.952;2022-12-07T04:06:31;12.07;;;4.22;;
50231;SDS011;36118;56.468;84.952;2022-12-07T04:11:33;26.25;;;10.90;;
50231;SDS011;36118;56.468;84.952;2022-12-07T04:16:36;24.63;;;9.18;;
50231;SDS011;36118;56.468;84.952;2022-12-07T04:21:45;23.98;;;11.98;;
50231;SDS011;36118;56.468;84.952;2022-12-07T04:26:49;23.92;;;9.20;;
50231;SDS011;36118;56.468;84.952;2022-12-07T04:31:51;18.83;;;7.20;;
50231;SDS011;36118;56.468;84.952;2022-12-07T04:36:54;22.50;;;8.68;;
50231;SDS011;36118;56.468;84.952;2022-12-07T04:41:57;19.80;;;8.38;;
50231;SDS011;36118;56.468;84.952;2022-12-07T04:47:01;19.05;;;7.85;;
50231;SDS011;36118;56.468;84.952;2022-12-07T04:52:04;8.80;;;3.63;;
50231;SDS011;36118;56.468;84.952;2022-12-07T04:57:06;14.82;;;6.55;;
50231;SDS011;36118;56.468;84.952;2022-12-07T05:02:09;19.02;;;7.22;;
50231;SDS011;36118;56.468;84.952;2022-12-07T05:07:12;28.63;;;10.55;;
50231;SDS011;36118;56.468;84.952;2022-12-07T05:12:15;23.40;;;12.20;;
50231;SDS011;36118;56.468;84.952;2022-12-07T05:17:17;24.30;;;10.50;;
50231;SDS011;36118;56.468;84.952;2022-12-07T05:22:20;25.53;;;9.27;;
50231;SDS011;36118;56.468;84.952;2022-12-07T05:27:23;15.57;;;6.40;;
50231;SDS011;36118;56.468;84.952;2022-12-07T05:32:26;22.20;;;9.27;;
50231;SDS011;36118;56.468;84.952;2022-12-07T05:37:29;19.60;;;7.57;;
50231;SDS011;36118;56.468;84.952;2022-12-07T05:42:31;21.23;;;8.10;;
50231;SDS011;36118;56.468;84.952;2022-12-07T05:47:34;21.30;;;6.70;;
50231;SDS011;36118;56.468;84.952;2022-12-07T05:52:37;24.92;;;8.50;;
50231;SDS011;36118;56.468;84.952;2022-12-07T05:57:40;20.50;;;8.93;;
50231;SDS011;36118;56.468;84.952;2022-12-07T06:03:02;22.52;;;8.85;;
50231;SDS011;36118;56.468;84.952;2022-12-07T06:08:05;20.58;;;7.18;;
50231;SDS011;36118;56.468;84.952;2022-12-07T06:13:08;17.67;;;7.33;;
50231;SDS011;36118;56.468;84.952;2022-12-07T06:18:11;17.90;;;7.57;;
50231;SDS011;36118;56.468;84.952;2022-12-07T06:23:14;27.80;;;9.77;;
50231;SDS011;36118;56.468;84.952;2022-12-07T06:28:17;22.57;;;9.63;;
50231;SDS011;36118;56.468;84.952;2022-12-07T06:33:19;25.23;;;11.57;;
50231;SDS011;36118;56.468;84.952;2022-12-07T06:38:22;20.80;;;9.37;;
50231;SDS011;36118;56.468;84.952;2022-12-07T06:43:25;22.13;;;9.40;;
50231;SDS011;36118;56.468;84.952;2022-12-07T06:48:28;13.95;;;6.00;;
50231;SDS011;36118;56.468;84.952;2022-12-07T06:53:30;14.50;;;6.20;;
50231;SDS011;36118;56.468;84.952;2022-12-07T06:58:33;11.47;;;5.67;;
50231;SDS011;36118;56.468;84.952;2022-12-07T07:03:36;15.93;;;6.27;;
50231;SDS011;36118;56.468;84.952;2022-12-07T07:08:39;12.90;;;4.97;;
50231;SDS011;36118;56.468;84.952;2022-12-07T07:13:43;15.18;;;6.50;;
50231;SDS011;36118;56.468;84.952;2022-12-07T07:18:47;14.23;;;5.97;;
50231;SDS011;36118;56.468;84.952;2022-12-07T07:23:49;21.50;;;8.10;;
50231;SDS011;36118;56.468;84.952;2022-12-07T07:28:52;13.65;;;5.90;;
50231;SDS011;36118;56.468;84.952;2022-12-07T07:33:55;22.25;;;6.13;;
50231;SDS011;36118;56.468;84.952;2022-12-07T07:38:57;18.48;;;7.88;;
50231;SDS011;36118;56.468;84.952;2022-12-07T07:44:00;25.50;;;9.93;;
50231;SDS011;36118;56.468;84.952;2022-12-07T07:49:03;22.45;;;8.75;;
50231;SDS011;36118;56.468;84.952;2022-12-07T07:54:06;16.80;;;5.57;;
50231;SDS011;36118;56.468;84.952;2022-12-07T07:59:08;15.70;;;5.20;;
50231;SDS011;36118;56.468;84.952;2022-12-07T08:04:11;23.80;;;9.50;;
50231;SDS011;36118;56.468;84.952;2022-12-07T08:09:14;12.82;;;5.00;;
50231;SDS011;36118;56.468;84.952;2022-12-07T08:14:17;10.87;;;5.63;;
50231;SDS011;36118;56.468;84.952;2022-12-07T08:19:20;18.07;;;8.30;;
50231;SDS011;36118;56.468;84.952;2022-12-07T08:24:22;12.70;;;4.77;;
50231;SDS011;36118;56.468;84.952;2022-12-07T08:29:27;19.80;;;10.25;;
50231;SDS011;36118;56.468;84.952;2022-12-07T08:34:29;12.75;;;5.65;;
50231;SDS011;36118;56.468;84.952;2022-12-07T08:39:32;16.87;;;7.80;;
50231;SDS011;36118;56.468;84.952;2022-12-07T08:44:35;22.40;;;5.03;;
50231;SDS011;36118;56.468;84.952;2022-12-07T08:49:41;21.27;;;11.00;;
50231;SDS011;36118;56.468;84.952;2022-12-07T08:54:46;17.95;;;8.10;;
50231;SDS011;36118;56.468;84.952;2022-12-07T08:59:49;18.00;;;8.20;;
50231;SDS011;36118;56.468;84.952;2022-12-07T09:04:51;27.80;;;6.13;;
50231;SDS011;36118;56.468;84.952;2022-12-07T09:09:54;17.27;;;7.23;;
50231;SDS011;36118;56.468;84.952;2022-12-07T09:14:58;17.50;;;7.93;;
50231;SDS011;36118;56.468;84.952;2022-12-07T09:20:04;15.40;;;6.28;;
50231;SDS011;36118;56.468;84.952;2022-12-07T09:25:08;21.23;;;10.25;;
50231;SDS011;36118;56.468;84.952;2022-12-07T09:30:11;18.23;;;9.15;;
50231;SDS011;36118;56.468;84.952;2022-12-07T09:35:14;20.23;;;9.35;;
50231;SDS011;36118;56.468;84.952;2022-12-07T09:40:17;17.00;;;7.30;;
50231;SDS011;36118;56.468;84.952;2022-12-07T09:45:27;16.23;;;6.05;;
50231;SDS011;36118;56.468;84.952;2022-12-07T09:50:34;18.50;;;7.55;;
50231;SDS011;36118;56.468;84.952;2022-12-07T09:55:37;18.90;;;10.33;;
50231;SDS011;36118;56.468;84.952;2022-12-07T10:05:44;19.27;;;6.13;;
50231;SDS011;36118;56.468;84.952;2022-12-07T10:10:51;19.90;;;9.57;;
50231;SDS011;36118;56.468;84.952;2022-12-07T10:15:56;15.77;;;6.43;;
50231;SDS011;36118;56.468;84.952;2022-12-07T10:26:25;25.35;;;12.13;;
50231;SDS011;36118;56.468;84.952;2022-12-07T10:31:29;18.58;;;8.13;;
50231;SDS011;36118;56.468;84.952;2022-12-07T10:41:35;18.05;;;10.00;;
50231;SDS011;36118;56.468;84.952;2022-12-07T10:51:55;21.15;;;10.18;;
50231;SDS011;36118;56.468;84.952;2022-12-07T11:18:26;22.13;;;10.00;;
50231;SDS011;36118;56.468;84.952;2022-12-07T11:23:56;16.00;;;6.43;;
50231;SDS011;36118;56.468;84.952;2022-12-07T11:35:15;21.75;;;11.43;;
50231;SDS011;36118;56.468;84.952;2022-12-07T11:45:26;24.58;;;10.30;;
50231;SDS011;36118;56.468;84.952;2022-12-07T11:50:36;17.45;;;7.65;;
50231;SDS011;36118;56.468;84.952;2022-12-07T12:06:15;27.37;;;14.47;;
50231;SDS011;36118;56.468;84.952;2022-12-07T12:21:59;27.27;;;12.95;;
50231;SDS011;36118;56.468;84.952;2022-12-07T12:27:25;28.13;;;12.80;;
50231;SDS011;36118;56.468;84.952;2022-12-07T12:32:41;15.57;;;7.10;;
50231;SDS011;36118;56.468;84.952;2022-12-07T12:37:45;24.80;;;11.80;;
50231;SDS011;36118;56.468;84.952;2022-12-07T12:42:52;27.83;;;13.98;;
50231;SDS011;36118;56.468;84.952;2022-12-07T12:48:00;22.92;;;10.98;;
50231;SDS011;36118;56.468;84.952;2022-12-07T12:58:38;26.85;;;13.20;;
50231;SDS011;36118;56.468;84.952;2022-12-07T13:03:55;21.70;;;11.13;;
50231;SDS011;36118;56.468;84.952;2022-12-07T13:08:59;25.63;;;10.95;;
50231;SDS011;36118;56.468;84.952;2022-12-07T13:24:45;24.15;;;11.38;;
50231;SDS011;36118;56.468;84.952;2022-12-07T13:34:51;31.23;;;14.68;;
50231;SDS011;36118;56.468;84.952;2022-12-07T13:39:55;29.85;;;11.95;;
50231;SDS011;36118;56.468;84.952;2022-12-07T13:45:00;36.20;;;16.15;;
50231;SDS011;36118;56.468;84.952;2022-12-07T13:50:26;25.90;;;10.45;;
50231;SDS011;36118;56.468;84.952;2022-12-07T13:55:30;22.38;;;11.73;;
50231;SDS011;36118;56.468;84.952;2022-12-07T14:00:33;31.08;;;13.80;;
50231;SDS011;36118;56.468;84.952;2022-12-07T14:05:36;26.23;;;12.32;;
50231;SDS011;36118;56.468;84.952;2022-12-07T14:10:41;28.52;;;12.25;;
50231;SDS011;36118;56.468;84.952;2022-12-07T14:15:55;25.10;;;10.38;;
50231;SDS011;36118;56.468;84.952;2022-12-07T14:21:03;31.60;;;14.27;;
50231;SDS011;36118;56.468;84.952;2022-12-07T14:26:07;15.55;;;7.20;;
50231;SDS011;36118;56.468;84.952;2022-12-07T14:31:18;36.28;;;17.75;;
50231;SDS011;36118;56.468;84.952;2022-12-07T14:36:31;43.45;;;16.90;;
50231;SDS011;36118;56.468;84.952;2022-12-07T14:46:55;35.00;;;14.93;;
50231;SDS011;36118;56.468;84.952;2022-12-07T14:52:21;36.25;;;19.90;;
50231;SDS011;36118;56.468;84.952;2022-12-07T14:57:46;34.28;;;14.25;;
50231;SDS011;36118;56.468;84.952;2022-12-07T15:02:49;40.10;;;18.58;;
50231;SDS011;36118;56.468;84.952;2022-12-07T15:07:52;29.58;;;11.70;;
50231;SDS011;36118;56.468;84.952;2022-12-07T15:18:18;31.65;;;12.85;;
50231;SDS011;36118;56.468;84.952;2022-12-07T15:23:22;43.33;;;18.80;;
50231;SDS011;36118;56.468;84.952;2022-12-07T15:43:52;43.10;;;18.40;;
50231;SDS011;36118;56.468;84.952;2022-12-07T15:49:17;48.28;;;15.98;;
50231;SDS011;36118;56.468;84.952;2022-12-07T15:54:22;41.60;;;16.58;;
50231;SDS011;36118;56.468;84.952;2022-12-07T15:59:26;39.85;;;16.50;;
50231;SDS011;36118;56.468;84.952;2022-12-07T16:04:30;42.88;;;16.85;;
50231;SDS011;36118;56.468;84.952;2022-12-07T16:09:33;51.00;;;19.85;;
50231;SDS011;36118;56.468;84.952;2022-12-07T16:14:36;44.65;;;19.05;;
50231;SDS011;36118;56.468;84.952;2022-12-07T16:19:39;38.58;;;16.40;;
50231;SDS011;36118;56.468;84.952;2022-12-07T16:29:44;43.13;;;18.95;;
50231;SDS011;36118;56.468;84.952;2022-12-07T16:39:50;41.17;;;16.50;;
50231;SDS011;36118;56.468;84.952;2022-12-07T16:44:52;43.67;;;16.95;;
50231;SDS011;36118;56.468;84.952;2022-12-07T17:00:01;36.80;;;13.70;;
50231;SDS011;36118;56.468;84.952;2022-12-07T17:05:06;38.78;;;16.42;;
50231;SDS011;36118;56.468;84.952;2022-12-07T17:10:09;42.38;;;15.45;;
50231;SDS011;36118;56.468;84.952;2022-12-07T17:15:13;43.50;;;17.20;;
50231;SDS011;36118;56.468;84.952;2022-12-07T17:20:19;40.03;;;16.85;;
50231;SDS011;36118;56.468;84.952;2022-12-07T17:25:24;38.88;;;17.38;;
50231;SDS011;36118;56.468;84.952;2022-12-07T17:30:27;46.20;;;20.23;;
50231;SDS011;36118;56.468;84.952;2022-12-07T17:40:32;39.95;;;16.67;;
50231;SDS011;36118;56.468;84.952;2022-12-07T17:45:35;37.95;;;16.70;;
50231;SDS011;36118;56.468;84.952;2022-12-07T17:50:39;39.72;;;16.20;;
50231;SDS011;36118;56.468;84.952;2022-12-07T17:56:00;36.70;;;14.27;;
50231;SDS011;36118;56.468;84.952;2022-12-07T18:01:23;35.38;;;16.58;;
50231;SDS011;36118;56.468;84.952;2022-12-07T18:06:32;43.63;;;17.98;;
50231;SDS011;36118;56.468;84.952;2022-12-07T18:11:35;39.45;;;18.80;;
50231;SDS011;36118;56.468;84.952;2022-12-07T18:16:38;41.40;;;16.70;;
50231;SDS011;36118;56.468;84.952;2022-12-07T18:21:41;34.95;;;12.40;;
50231;SDS011;36118;56.468;84.952;2022-12-07T18:26:44;33.15;;;15.45;;
50231;SDS011;36118;56.468;84.952;2022-12-07T18:31:49;38.05;;;16.83;;
50231;SDS011;36118;56.468;84.952;2022-12-07T18:36:51;50.67;;;22.30;;
50231;SDS011;36118;56.468;84.952;2022-12-07T18:46:57;41.20;;;17.17;;
50231;SDS011;36118;56.468;84.952;2022-12-07T18:52:00;41.58;;;17.65;;
50231;SDS011;36118;56.468;84.952;2022-12-07T18:57:03;43.03;;;20.05;;
50231;SDS011;36118;56.468;84.952;2022-12-07T19:02:06;34.33;;;13.68;;
50231;SDS011;36118;56.468;84.952;2022-12-07T19:07:09;39.92;;;14.45;;
50231;SDS011;36118;56.468;84.952;2022-12-07T19:12:12;39.63;;;15.55;;
50231;SDS011;36118;56.468;84.952;2022-12-07T19:17:15;38.08;;;17.83;;
50231;SDS011;36118;56.468;84.952;2022-12-07T19:22:19;44.05;;;20.17;;
50231;SDS011;36118;56.468;84.952;2022-12-07T19:27:23;32.22;;;14.30;;
50231;SDS011;36118;56.468;84.952;2022-12-07T19:32:26;32.28;;;12.60;;
50231;SDS011;36118;56.468;84.952;2022-12-07T19:37:29;32.35;;;11.10;;
50231;SDS011;36118;56.468;84.952;2022-12-07T19:47:36;47.50;;;19.52;;
50231;SDS011;36118;56.468;84.952;2022-12-07T19:57:42;43.53;;;20.55;;
50231;SDS011;36118;56.468;84.952;2022-12-07T20:02:44;43.05;;;17.45;;
50231;SDS011;36118;56.468;84.952;2022-12-07T20:07:47;47.15;;;19.52;;
50231;SDS011;36118;56.468;84.952;2022-12-07T20:12:50;45.97;;;19.67;;
50231;SDS011;36118;56.468;84.952;2022-12-07T20:18:12;45.33;;;20.30;;
50231;SDS011;36118;56.468;84.952;2022-12-07T20:23:14;51.65;;;23.17;;
50231;SDS011;36118;56.468;84.952;2022-12-07T20:38:22;47.28;;;23.25;;
50231;SDS011;36118;56.468;84.952;2022-12-07T20:48:27;45.05;;;22.73;;
50231;SDS011;36118;56.468;84.952;2022-12-07T20:58:33;48.50;;;20.92;;
50231;SDS011;36118;56.468;84.952;2022-12-07T21:08:38;43.85;;;18.45;;
50231;SDS011;36118;56.468;84.952;2022-12-07T21:13:44;38.90;;;17.98;;
50231;SDS011;36118;56.468;84.952;2022-12-07T21:18:47;48.47;;;19.88;;
50231;SDS011;36118;56.468;84.952;2022-12-07T21:23:51;52.25;;;24.38;;
50231;SDS011;36118;56.468;84.952;2022-12-07T21:29:04;33.42;;;10.50;;
50231;SDS011;36118;56.468;84.952;2022-12-07T21:34:07;47.35;;;20.45;;
50231;SDS011;36118;56.468;84.952;2022-12-07T21:44:12;46.67;;;19.05;;
50231;SDS011;36118;56.468;84.952;2022-12-07T21:54:17;41.38;;;17.85;;
50231;SDS011;36118;56.468;84.952;2022-12-07T21:59:26;18.63;;;8.20;;
50231;SDS011;36118;56.468;84.952;2022-12-07T22:04:29;41.58;;;16.77;;
50231;SDS011;36118;56.468;84.952;2022-12-07T22:19:55;41.95;;;15.10;;
50231;SDS011;36118;56.468;84.952;2022-12-07T22:30:00;52.15;;;23.13;;
50231;SDS011;36118;56.468;84.952;2022-12-07T22:35:04;29.77;;;11.48;;
50231;SDS011;36118;56.468;84.952;2022-12-07T22:40:07;41.00;;;18.38;;
50231;SDS011;36118;56.468;84.952;2022-12-07T22:45:10;36.92;;;13.88;;
50231;SDS011;36118;56.468;84.952;2022-12-07T23:00:18;36.35;;;13.88;;
50231;SDS011;36118;56.468;84.952;2022-12-07T23:05:20;33.05;;;11.75;;
50231;SDS011;36118;56.468;84.952;2022-12-07T23:15:26;45.85;;;19.00;;
50231;SDS011;36118;56.468;84.952;2022-12-07T23:25:31;32.55;;;14.77;;
50231;SDS011;36118;56.468;84.952;2022-12-07T23:30:34;45.38;;;18.95;;
50231;SDS011;36118;56.468;84.952;2022-12-07T23:40:39;47.33;;;21.08;;
50231;SDS011;36118;56.468;84.952;2022-12-07T23:50:46;42.75;;;18.80;;
